sensor_id;sensor_type;location;lat;lon;timestamp;pressure;altitude;pressure_sealevel;temperature;humidity
21359;BME280;13506;50.852;20.632;2023-05-03T00:00:24;98834.72;;;12.30;90.42
21359;BME280;13506;50.852;20.632;2023-05-03T00:03:10;98828.25;;;12.23;90.53
21359;BME280;13506;50.852;20.632;2023-05-03T00:05:39;98824.88;;;12.21;91.75
21359;BME280;13506;50.852;20.632;2023-05-03T00:08:08;98834.72;;;12.17;92.00
21359;BME280;13506;50.852;20.632;2023-05-03T00:10:36;98834.09;;;12.14;92.31
21359;BME280;13506;50.852;20.632;2023-05-03T00:13:04;98835.56;;;12.18;91.42
21359;BME280;13506;50.852;20.632;2023-05-03T00:15:32;98833.91;;;12.17;91.53
21359;BME280;13506;50.852;20.632;2023-05-03T00:18:00;98833.16;;;12.15;91.79
21359;BME280;13506;50.852;20.632;2023-05-03T00:20:28;98829.72;;;12.14;91.97
21359;BME280;13506;50.852;20.632;2023-05-03T00:22:56;98835.06;;;12.13;92.57
21359;BME280;13506;50.852;20.632;2023-05-03T00:25:25;98835.06;;;12.13;93.04
21359;BME280;13506;50.852;20.632;2023-05-03T00:27:53;98834.34;;;12.11;92.78
21359;BME280;13506;50.852;20.632;2023-05-03T00:30:21;98839.59;;;12.11;93.01
21359;BME280;13506;50.852;20.632;2023-05-03T00:32:49;98831.94;;;12.08;93.08
21359;BME280;13506;50.852;20.632;2023-05-03T00:35:18;98824.91;;;12.08;93.31
21359;BME280;13506;50.852;20.632;2023-05-03T00:37:46;98831.22;;;12.06;93.87
21359;BME280;13506;50.852;20.632;2023-05-03T00:40:14;98831.41;;;12.03;93.91
21359;BME280;13506;50.852;20.632;2023-05-03T00:42:45;98835.00;;;12.02;94.34
21359;BME280;13506;50.852;20.632;2023-05-03T00:45:13;98830.59;;;12.02;93.71
21359;BME280;13506;50.852;20.632;2023-05-03T00:47:41;98829.63;;;12.03;94.03
21359;BME280;13506;50.852;20.632;2023-05-03T00:50:10;98823.03;;;11.97;95.32
21359;BME280;13506;50.852;20.632;2023-05-03T00:52:39;98832.06;;;11.93;96.17
21359;BME280;13506;50.852;20.632;2023-05-03T00:55:09;98830.19;;;11.95;95.42
21359;BME280;13506;50.852;20.632;2023-05-03T00:57:38;98836.16;;;11.97;94.85
21359;BME280;13506;50.852;20.632;2023-05-03T01:00:08;98832.56;;;11.98;95.21
21359;BME280;13506;50.852;20.632;2023-05-03T01:02:39;98835.19;;;11.98;94.81
21359;BME280;13506;50.852;20.632;2023-05-03T01:05:07;98830.91;;;11.97;95.47
21359;BME280;13506;50.852;20.632;2023-05-03T01:07:44;98833.31;;;12.01;95.53
21359;BME280;13506;50.852;20.632;2023-05-03T01:10:22;98835.19;;;11.98;96.03
21359;BME280;13506;50.852;20.632;2023-05-03T01:12:59;98837.63;;;12.02;95.56
21359;BME280;13506;50.852;20.632;2023-05-03T01:15:44;98838.53;;;12.01;95.42
21359;BME280;13506;50.852;20.632;2023-05-03T01:18:20;98837.72;;;12.00;95.18
21359;BME280;13506;50.852;20.632;2023-05-03T01:20:51;98826.41;;;12.00;95.62
21359;BME280;13506;50.852;20.632;2023-05-03T01:23:28;98835.19;;;11.98;95.48
21359;BME280;13506;50.852;20.632;2023-05-03T01:26:14;98832.56;;;11.98;95.72
21359;BME280;13506;50.852;20.632;2023-05-03T01:28:43;98834.38;;;11.98;96.06
21359;BME280;13506;50.852;20.632;2023-05-03T01:31:12;98831.63;;;12.00;95.84
21359;BME280;13506;50.852;20.632;2023-05-03T01:33:48;98839.50;;;12.00;95.41
21359;BME280;13506;50.852;20.632;2023-05-03T01:36:22;98831.94;;;11.95;95.99
21359;BME280;13506;50.852;20.632;2023-05-03T01:38:54;98838.56;;;11.88;98.36
21359;BME280;13506;50.852;20.632;2023-05-03T01:41:24;98836.44;;;11.93;96.53
21359;BME280;13506;50.852;20.632;2023-05-03T01:43:54;98834.38;;;11.85;98.15
21359;BME280;13506;50.852;20.632;2023-05-03T01:46:22;98839.41;;;11.88;97.48
21359;BME280;13506;50.852;20.632;2023-05-03T01:48:50;98844.53;;;11.90;97.01
21359;BME280;13506;50.852;20.632;2023-05-03T01:51:18;98838.25;;;11.92;96.57
21359;BME280;13506;50.852;20.632;2023-05-03T01:53:46;98845.38;;;11.90;97.06
21359;BME280;13506;50.852;20.632;2023-05-03T01:56:14;98846.34;;;11.89;97.04
21359;BME280;13506;50.852;20.632;2023-05-03T01:58:44;98848.97;;;11.89;96.87
21359;BME280;13506;50.852;20.632;2023-05-03T02:01:12;98848.44;;;11.84;97.88
21359;BME280;13506;50.852;20.632;2023-05-03T02:03:40;98851.91;;;11.85;97.23
21359;BME280;13506;50.852;20.632;2023-05-03T02:06:09;98858.72;;;11.74;99.15
21359;BME280;13506;50.852;20.632;2023-05-03T02:08:37;98850.53;;;11.79;98.16
21359;BME280;13506;50.852;20.632;2023-05-03T02:11:05;98854.22;;;11.76;99.37
21359;BME280;13506;50.852;20.632;2023-05-03T02:13:36;98853.78;;;11.83;97.75
21359;BME280;13506;50.852;20.632;2023-05-03T02:16:06;98850.13;;;11.85;97.99
21359;BME280;13506;50.852;20.632;2023-05-03T02:18:35;98847.69;;;11.82;97.84
21359;BME280;13506;50.852;20.632;2023-05-03T02:21:03;98842.44;;;11.82;98.50
21359;BME280;13506;50.852;20.632;2023-05-03T02:23:32;98848.22;;;11.87;97.76
21359;BME280;13506;50.852;20.632;2023-05-03T02:26:00;98849.16;;;11.86;97.17
21359;BME280;13506;50.852;20.632;2023-05-03T02:28:28;98843.81;;;11.88;97.46
21359;BME280;13506;50.852;20.632;2023-05-03T02:30:56;98850.75;;;11.89;97.51
21359;BME280;13506;50.852;20.632;2023-05-03T02:33:26;98854.94;;;11.79;97.91
21359;BME280;13506;50.852;20.632;2023-05-03T02:35:53;98860.69;;;11.84;98.09
21359;BME280;13506;50.852;20.632;2023-05-03T02:38:22;98854.41;;;11.86;98.06
21359;BME280;13506;50.852;20.632;2023-05-03T02:40:50;98861.25;;;11.89;97.82
21359;BME280;13506;50.852;20.632;2023-05-03T02:43:18;98857.75;;;11.88;97.53
21359;BME280;13506;50.852;20.632;2023-05-03T02:45:46;98859.63;;;11.86;97.55
21359;BME280;13506;50.852;20.632;2023-05-03T02:48:14;98864.38;;;11.81;99.07
21359;BME280;13506;50.852;20.632;2023-05-03T02:50:44;98870.34;;;11.83;97.96
21359;BME280;13506;50.852;20.632;2023-05-03T02:53:12;98866.91;;;11.83;98.28
21359;BME280;13506;50.852;20.632;2023-05-03T02:55:40;98873.81;;;11.84;98.07
21359;BME280;13506;50.852;20.632;2023-05-03T02:58:08;98875.91;;;11.79;98.90
21359;BME280;13506;50.852;20.632;2023-05-03T03:00:36;98876.94;;;11.76;98.77
21359;BME280;13506;50.852;20.632;2023-05-03T03:03:04;98874.31;;;11.76;98.40
21359;BME280;13506;50.852;20.632;2023-05-03T03:05:33;98876.84;;;11.77;98.19
21359;BME280;13506;50.852;20.632;2023-05-03T03:08:02;98886.59;;;11.75;98.25
21359;BME280;13506;50.852;20.632;2023-05-03T03:10:31;98878.22;;;11.70;99.50
21359;BME280;13506;50.852;20.632;2023-05-03T03:12:59;98894.59;;;11.74;99.07
21359;BME280;13506;50.852;20.632;2023-05-03T03:15:34;98887.16;;;11.68;99.73
21359;BME280;13506;50.852;20.632;2023-05-03T03:18:02;98890.28;;;11.73;99.06
21359;BME280;13506;50.852;20.632;2023-05-03T03:20:30;98886.91;;;11.71;99.63
21359;BME280;13506;50.852;20.632;2023-05-03T03:22:58;98886.41;;;11.66;99.87
21359;BME280;13506;50.852;20.632;2023-05-03T03:25:28;98888.91;;;11.67;99.57
21359;BME280;13506;50.852;20.632;2023-05-03T03:27:58;98881.34;;;11.63;100.00
21359;BME280;13506;50.852;20.632;2023-05-03T03:30:26;98894.56;;;11.61;100.00
21359;BME280;13506;50.852;20.632;2023-05-03T03:33:07;98895.28;;;11.63;99.18
21359;BME280;13506;50.852;20.632;2023-05-03T03:35:39;98886.09;;;11.57;100.00
21359;BME280;13506;50.852;20.632;2023-05-03T03:38:08;98889.63;;;11.56;99.76
21359;BME280;13506;50.852;20.632;2023-05-03T03:40:43;98889.31;;;11.61;98.85
21359;BME280;13506;50.852;20.632;2023-05-03T03:43:12;98890.50;;;11.57;98.80
21359;BME280;13506;50.852;20.632;2023-05-03T03:45:40;98899.59;;;11.64;98.92
21359;BME280;13506;50.852;20.632;2023-05-03T03:48:08;98906.09;;;11.59;99.57
21359;BME280;13506;50.852;20.632;2023-05-03T03:50:36;98905.59;;;11.53;99.36
21359;BME280;13506;50.852;20.632;2023-05-03T03:53:05;98913.88;;;11.60;98.86
21359;BME280;13506;50.852;20.632;2023-05-03T03:55:35;98916.97;;;11.40;99.81
21359;BME280;13506;50.852;20.632;2023-05-03T03:58:05;98912.28;;;11.57;99.04
21359;BME280;13506;50.852;20.632;2023-05-03T04:00:33;98913.13;;;11.58;99.08
21359;BME280;13506;50.852;20.632;2023-05-03T04:03:09;98916.16;;;11.52;98.94
21359;BME280;13506;50.852;20.632;2023-05-03T04:05:36;98926.00;;;11.61;98.71
21359;BME280;13506;50.852;20.632;2023-05-03T04:08:05;98926.66;;;11.65;99.12
21359;BME280;13506;50.852;20.632;2023-05-03T04:10:35;98930.00;;;11.67;98.12
21359;BME280;13506;50.852;20.632;2023-05-03T04:13:05;98937.34;;;11.62;98.76
21359;BME280;13506;50.852;20.632;2023-05-03T04:15:35;98935.47;;;11.64;98.58
21359;BME280;13506;50.852;20.632;2023-05-03T04:18:05;98935.78;;;11.59;99.43
21359;BME280;13506;50.852;20.632;2023-05-03T04:20:35;98929.38;;;11.63;98.47
21359;BME280;13506;50.852;20.632;2023-05-03T04:23:06;98933.25;;;11.57;99.64
21359;BME280;13506;50.852;20.632;2023-05-03T04:25:34;98936.81;;;11.56;100.00
21359;BME280;13506;50.852;20.632;2023-05-03T04:28:11;98928.53;;;11.63;98.69
21359;BME280;13506;50.852;20.632;2023-05-03T04:30:43;98947.44;;;11.68;98.85
21359;BME280;13506;50.852;20.632;2023-05-03T04:33:13;98942.91;;;11.70;98.04
21359;BME280;13506;50.852;20.632;2023-05-03T04:35:42;98950.56;;;11.73;97.88
21359;BME280;13506;50.852;20.632;2023-05-03T04:38:13;98947.84;;;11.74;97.40
21359;BME280;13506;50.852;20.632;2023-05-03T04:40:41;98953.81;;;11.76;98.21
21359;BME280;13506;50.852;20.632;2023-05-03T04:43:12;98948.28;;;11.81;97.55
21359;BME280;13506;50.852;20.632;2023-05-03T04:45:43;98947.44;;;11.81;97.16
21359;BME280;13506;50.852;20.632;2023-05-03T04:48:17;98947.44;;;11.81;97.31
21359;BME280;13506;50.852;20.632;2023-05-03T04:50:45;98949.84;;;11.84;96.62
21359;BME280;13506;50.852;20.632;2023-05-03T04:53:15;98948.03;;;11.84;96.35
21359;BME280;13506;50.852;20.632;2023-05-03T04:55:47;98945.41;;;11.84;95.80
21359;BME280;13506;50.852;20.632;2023-05-03T04:58:17;98949.75;;;11.85;95.74
21359;BME280;13506;50.852;20.632;2023-05-03T05:00:47;98945.53;;;11.70;96.93
21359;BME280;13506;50.852;20.632;2023-05-03T05:03:22;98948.16;;;11.70;97.58
21359;BME280;13506;50.852;20.632;2023-05-03T05:05:51;98948.03;;;11.71;97.61
21359;BME280;13506;50.852;20.632;2023-05-03T05:08:19;98944.50;;;11.72;98.12
21359;BME280;13506;50.852;20.632;2023-05-03T05:10:51;98948.59;;;11.76;97.32
21359;BME280;13506;50.852;20.632;2023-05-03T05:13:25;98947.84;;;11.74;97.58
21359;BME280;13506;50.852;20.632;2023-05-03T05:15:53;98953.28;;;11.71;98.12
21359;BME280;13506;50.852;20.632;2023-05-03T05:18:22;98953.25;;;11.59;98.73
21359;BME280;13506;50.852;20.632;2023-05-03T05:20:50;98953.25;;;11.59;99.09
21359;BME280;13506;50.852;20.632;2023-05-03T05:23:20;98958.41;;;11.60;98.38
21359;BME280;13506;50.852;20.632;2023-05-03T05:25:48;98960.50;;;11.55;97.69
21359;BME280;13506;50.852;20.632;2023-05-03T05:28:17;98966.06;;;11.63;96.52
21359;BME280;13506;50.852;20.632;2023-05-03T05:30:47;98975.31;;;11.69;96.58
21359;BME280;13506;50.852;20.632;2023-05-03T05:33:15;98973.94;;;11.76;96.25
21359;BME280;13506;50.852;20.632;2023-05-03T05:35:45;98988.50;;;11.80;95.98
21359;BME280;13506;50.852;20.632;2023-05-03T05:38:14;98983.00;;;11.85;95.70
21359;BME280;13506;50.852;20.632;2023-05-03T05:40:43;98990.63;;;11.88;96.19
21359;BME280;13506;50.852;20.632;2023-05-03T05:43:11;98997.66;;;11.87;95.05
21359;BME280;13506;50.852;20.632;2023-05-03T05:45:43;98992.94;;;11.92;94.69
21359;BME280;13506;50.852;20.632;2023-05-03T05:48:12;99001.34;;;11.97;95.10
21359;BME280;13506;50.852;20.632;2023-05-03T05:50:42;98999.25;;;12.03;95.29
21359;BME280;13506;50.852;20.632;2023-05-03T05:53:12;98997.88;;;12.10;94.84
21359;BME280;13506;50.852;20.632;2023-05-03T05:55:47;99010.38;;;12.06;93.73
21359;BME280;13506;50.852;20.632;2023-05-03T05:58:15;99002.09;;;12.00;93.74
21359;BME280;13506;50.852;20.632;2023-05-03T06:00:48;99001.69;;;12.06;94.11
21359;BME280;13506;50.852;20.632;2023-05-03T06:03:19;99009.53;;;12.06;93.48
21359;BME280;13506;50.852;20.632;2023-05-03T06:05:49;99005.97;;;12.07;93.53
21359;BME280;13506;50.852;20.632;2023-05-03T06:08:17;99007.00;;;12.04;92.66
21359;BME280;13506;50.852;20.632;2023-05-03T06:10:45;99006.59;;;11.97;91.69
21359;BME280;13506;50.852;20.632;2023-05-03T06:13:14;99008.91;;;12.02;92.20
21359;BME280;13506;50.852;20.632;2023-05-03T06:15:43;99015.72;;;12.05;92.37
21359;BME280;13506;50.852;20.632;2023-05-03T06:18:11;99016.88;;;12.01;92.53
21359;BME280;13506;50.852;20.632;2023-05-03T06:20:40;99023.50;;;12.06;92.57
21359;BME280;13506;50.852;20.632;2023-05-03T06:23:09;99030.81;;;12.14;92.26
21359;BME280;13506;50.852;20.632;2023-05-03T06:25:37;99027.03;;;12.18;91.77
21359;BME280;13506;50.852;20.632;2023-05-03T06:28:06;99034.91;;;12.18;91.69
21359;BME280;13506;50.852;20.632;2023-05-03T06:30:35;99034.06;;;12.17;91.66
21359;BME280;13506;50.852;20.632;2023-05-03T06:33:13;99030.25;;;12.23;92.97
21359;BME280;13506;50.852;20.632;2023-05-03T06:35:44;99032.88;;;12.23;91.87
21359;BME280;13506;50.852;20.632;2023-05-03T06:38:15;99025.38;;;12.17;91.77
21359;BME280;13506;50.852;20.632;2023-05-03T06:40:44;99038.28;;;12.20;91.23
21359;BME280;13506;50.852;20.632;2023-05-03T06:43:12;99028.34;;;12.25;91.06
21359;BME280;13506;50.852;20.632;2023-05-03T06:45:50;99028.66;;;12.33;90.29
21359;BME280;13506;50.852;20.632;2023-05-03T06:48:19;99030.56;;;12.31;90.46
21359;BME280;13506;50.852;20.632;2023-05-03T06:50:49;99043.44;;;12.34;89.58
21359;BME280;13506;50.852;20.632;2023-05-03T06:53:17;99035.25;;;12.39;89.09
21359;BME280;13506;50.852;20.632;2023-05-03T06:55:45;99034.34;;;12.27;87.78
21359;BME280;13506;50.852;20.632;2023-05-03T06:58:13;99035.91;;;12.43;88.42
21359;BME280;13506;50.852;20.632;2023-05-03T07:00:42;99032.13;;;12.47;88.03
21359;BME280;13506;50.852;20.632;2023-05-03T07:03:10;99026.22;;;12.56;87.36
21359;BME280;13506;50.852;20.632;2023-05-03T07:05:38;99038.28;;;12.58;86.28
21359;BME280;13506;50.852;20.632;2023-05-03T07:08:07;99033.03;;;12.71;86.35
21359;BME280;13506;50.852;20.632;2023-05-03T07:10:35;99029.22;;;12.75;85.71
21359;BME280;13506;50.852;20.632;2023-05-03T07:13:03;99031.00;;;12.88;85.67
21359;BME280;13506;50.852;20.632;2023-05-03T07:15:31;99035.47;;;12.98;84.95
21359;BME280;13506;50.852;20.632;2023-05-03T07:17:59;99032.81;;;12.74;79.08
21359;BME280;13506;50.852;20.632;2023-05-03T07:20:27;99039.59;;;12.90;81.54
21359;BME280;13506;50.852;20.632;2023-05-03T07:22:55;99036.53;;;12.96;79.79
21359;BME280;13506;50.852;20.632;2023-05-03T07:25:25;99037.59;;;12.93;77.73
21359;BME280;13506;50.852;20.632;2023-05-03T07:27:53;99041.16;;;12.92;77.15
21359;BME280;13506;50.852;20.632;2023-05-03T07:30:21;99046.56;;;12.91;74.76
21359;BME280;13506;50.852;20.632;2023-05-03T07:32:50;99048.34;;;12.90;75.34
21359;BME280;13506;50.852;20.632;2023-05-03T07:35:18;99048.53;;;12.87;76.27
21359;BME280;13506;50.852;20.632;2023-05-03T07:37:46;99049.38;;;12.88;75.55
21359;BME280;13506;50.852;20.632;2023-05-03T07:40:14;99055.75;;;12.96;76.57
21359;BME280;13506;50.852;20.632;2023-05-03T07:42:43;99054.50;;;13.02;76.51
21359;BME280;13506;50.852;20.632;2023-05-03T07:45:12;99056.69;;;13.08;76.88
21359;BME280;13506;50.852;20.632;2023-05-03T07:47:40;99049.97;;;13.04;75.37
21359;BME280;13506;50.852;20.632;2023-05-03T07:50:08;99062.91;;;12.94;70.30
21359;BME280;13506;50.852;20.632;2023-05-03T07:52:37;99057.25;;;12.88;72.35
21359;BME280;13506;50.852;20.632;2023-05-03T07:55:06;99066.63;;;12.79;73.51
21359;BME280;13506;50.852;20.632;2023-05-03T07:57:34;99068.13;;;12.57;73.86
21359;BME280;13506;50.852;20.632;2023-05-03T08:00:04;99070.22;;;12.65;74.55
21359;BME280;13506;50.852;20.632;2023-05-03T08:02:39;99072.94;;;12.64;75.41
21359;BME280;13506;50.852;20.632;2023-05-03T08:05:08;99068.53;;;12.64;75.54
21359;BME280;13506;50.852;20.632;2023-05-03T08:07:36;99060.72;;;12.75;75.01
21359;BME280;13506;50.852;20.632;2023-05-03T08:10:05;99070.31;;;12.76;74.59
21359;BME280;13506;50.852;20.632;2023-05-03T08:12:33;99058.41;;;12.84;74.11
21359;BME280;13506;50.852;20.632;2023-05-03T08:15:03;99070.41;;;12.75;73.77
21359;BME280;13506;50.852;20.632;2023-05-03T08:17:39;99081.13;;;12.72;72.42
21359;BME280;13506;50.852;20.632;2023-05-03T08:20:08;99078.84;;;12.67;72.02
21359;BME280;13506;50.852;20.632;2023-05-03T08:22:38;99089.34;;;12.67;73.09
21359;BME280;13506;50.852;20.632;2023-05-03T08:25:07;99082.63;;;12.63;72.84
21359;BME280;13506;50.852;20.632;2023-05-03T08:27:35;99092.47;;;12.60;71.10
21359;BME280;13506;50.852;20.632;2023-05-03T08:30:06;99092.97;;;12.65;71.81
21359;BME280;13506;50.852;20.632;2023-05-03T08:32:35;99083.53;;;12.62;71.94
21359;BME280;13506;50.852;20.632;2023-05-03T08:35:03;99088.06;;;12.60;72.30
21359;BME280;13506;50.852;20.632;2023-05-03T08:37:37;99093.31;;;12.60;72.29
21359;BME280;13506;50.852;20.632;2023-05-03T08:40:07;99093.94;;;12.51;72.19
21359;BME280;13506;50.852;20.632;2023-05-03T08:42:41;99099.19;;;12.51;72.94
21359;BME280;13506;50.852;20.632;2023-05-03T08:45:12;99100.25;;;12.48;71.86
21359;BME280;13506;50.852;20.632;2023-05-03T08:47:42;99095.19;;;12.32;71.82
21359;BME280;13506;50.852;20.632;2023-05-03T08:50:11;99098.13;;;12.28;72.07
21359;BME280;13506;50.852;20.632;2023-05-03T08:52:40;99099.28;;;12.24;70.94
21359;BME280;13506;50.852;20.632;2023-05-03T08:55:10;99091.78;;;12.05;71.80
21359;BME280;13506;50.852;20.632;2023-05-03T08:57:38;99114.47;;;12.18;72.39
21359;BME280;13506;50.852;20.632;2023-05-03T09:00:07;99101.81;;;12.38;72.85
21359;BME280;13506;50.852;20.632;2023-05-03T09:02:38;99109.06;;;12.47;71.96
21359;BME280;13506;50.852;20.632;2023-05-03T09:05:34;99106.97;;;12.65;72.55
21359;BME280;13506;50.852;20.632;2023-05-03T09:08:06;99108.22;;;12.72;72.20
21359;BME280;13506;50.852;20.632;2023-05-03T09:10:37;99109.03;;;12.86;70.13
21359;BME280;13506;50.852;20.632;2023-05-03T09:13:07;99111.66;;;12.86;68.70
21359;BME280;13506;50.852;20.632;2023-05-03T09:15:35;99108.19;;;12.98;67.11
21359;BME280;13506;50.852;20.632;2023-05-03T09:18:10;99115.97;;;12.99;66.12
21359;BME280;13506;50.852;20.632;2023-05-03T09:20:39;99117.47;;;12.91;63.02
21359;BME280;13506;50.852;20.632;2023-05-03T09:23:08;99109.00;;;13.11;64.43
21359;BME280;13506;50.852;20.632;2023-05-03T09:25:41;99120.66;;;13.07;63.56
21359;BME280;13506;50.852;20.632;2023-05-03T09:28:08;99118.03;;;13.20;63.63
21359;BME280;13506;50.852;20.632;2023-05-03T09:30:36;99119.50;;;13.11;62.32
21359;BME280;13506;50.852;20.632;2023-05-03T09:33:05;99114.13;;;13.26;61.48
21359;BME280;13506;50.852;20.632;2023-05-03T09:35:34;99121.28;;;13.24;61.14
21359;BME280;13506;50.852;20.632;2023-05-03T09:38:03;99124.75;;;13.37;60.93
21359;BME280;13506;50.852;20.632;2023-05-03T09:40:31;99129.78;;;13.40;60.11
21359;BME280;13506;50.852;20.632;2023-05-03T09:43:07;99135.78;;;13.42;59.94
21359;BME280;13506;50.852;20.632;2023-05-03T09:45:36;99129.97;;;13.24;58.16
21359;BME280;13506;50.852;20.632;2023-05-03T09:48:06;99131.56;;;13.27;59.53
21359;BME280;13506;50.852;20.632;2023-05-03T09:50:36;99135.06;;;13.14;59.82
21359;BME280;13506;50.852;20.632;2023-05-03T09:53:05;99138.44;;;13.16;61.39
21359;BME280;13506;50.852;20.632;2023-05-03T09:55:35;99123.78;;;13.25;61.15
21359;BME280;13506;50.852;20.632;2023-05-03T09:58:04;99125.78;;;13.34;61.19
21359;BME280;13506;50.852;20.632;2023-05-03T10:00:35;99127.25;;;13.38;62.42
21359;BME280;13506;50.852;20.632;2023-05-03T10:03:08;99132.16;;;13.43;62.01
21359;BME280;13506;50.852;20.632;2023-05-03T10:05:43;99130.63;;;13.41;60.99
21359;BME280;13506;50.852;20.632;2023-05-03T10:08:21;99139.84;;;13.46;60.22
21359;BME280;13506;50.852;20.632;2023-05-03T10:10:53;99141.25;;;13.39;59.82
21359;BME280;13506;50.852;20.632;2023-05-03T10:13:22;99138.09;;;13.34;59.72
21359;BME280;13506;50.852;20.632;2023-05-03T10:15:54;99134.06;;;13.28;59.70
21359;BME280;13506;50.852;20.632;2023-05-03T10:18:27;99143.84;;;13.26;59.00
21359;BME280;13506;50.852;20.632;2023-05-03T10:21:03;99136.69;;;13.28;59.56
21359;BME280;13506;50.852;20.632;2023-05-03T10:23:34;99131.28;;;13.18;58.85
21359;BME280;13506;50.852;20.632;2023-05-03T10:26:15;99139.25;;;13.17;58.77
21359;BME280;13506;50.852;20.632;2023-05-03T10:28:43;99133.91;;;13.18;59.11
21359;BME280;13506;50.852;20.632;2023-05-03T10:31:42;99132.50;;;13.26;59.97
21359;BME280;13506;50.852;20.632;2023-05-03T10:34:22;99137.03;;;13.24;60.43
21359;BME280;13506;50.852;20.632;2023-05-03T10:36:52;99141.03;;;13.29;60.36
21359;BME280;13506;50.852;20.632;2023-05-03T10:39:20;99139.91;;;13.21;61.05
21359;BME280;13506;50.852;20.632;2023-05-03T10:42:00;99136.00;;;13.39;61.09
21359;BME280;13506;50.852;20.632;2023-05-03T10:44:33;99133.88;;;13.44;61.81
21359;BME280;13506;50.852;20.632;2023-05-03T10:47:09;99133.19;;;13.53;61.29
21359;BME280;13506;50.852;20.632;2023-05-03T10:49:39;99134.56;;;13.59;59.98
21359;BME280;13506;50.852;20.632;2023-05-03T10:55:10;99136.63;;;13.91;58.54
21359;BME280;13506;50.852;20.632;2023-05-03T10:57:40;99139.63;;;13.97;58.40
21359;BME280;13506;50.852;20.632;2023-05-03T11:00:12;99141.88;;;13.91;57.88
21359;BME280;13506;50.852;20.632;2023-05-03T11:05:40;99129.75;;;14.01;58.27
21359;BME280;13506;50.852;20.632;2023-05-03T11:08:10;99126.66;;;14.07;58.49
21359;BME280;13506;50.852;20.632;2023-05-03T11:10:40;99134.41;;;14.09;56.53
21359;BME280;13506;50.852;20.632;2023-05-03T11:13:08;99128.13;;;14.23;56.97
21359;BME280;13506;50.852;20.632;2023-05-03T11:15:36;99138.31;;;14.27;56.54
21359;BME280;13506;50.852;20.632;2023-05-03T11:18:05;99134.00;;;14.26;56.49
21359;BME280;13506;50.852;20.632;2023-05-03T11:20:34;99123.59;;;14.25;56.87
21359;BME280;13506;50.852;20.632;2023-05-03T11:23:03;99130.19;;;14.30;55.93
21359;BME280;13506;50.852;20.632;2023-05-03T11:25:31;99130.06;;;14.32;56.36
21359;BME280;13506;50.852;20.632;2023-05-03T11:28:02;99135.31;;;14.32;56.12
21359;BME280;13506;50.852;20.632;2023-05-03T11:30:33;99131.53;;;14.36;55.50
21359;BME280;13506;50.852;20.632;2023-05-03T11:33:02;99130.72;;;14.47;54.57
21359;BME280;13506;50.852;20.632;2023-05-03T11:35:30;99142.13;;;14.58;54.01
21359;BME280;13506;50.852;20.632;2023-05-03T11:37:58;99131.50;;;14.60;54.77
21359;BME280;13506;50.852;20.632;2023-05-03T11:40:26;99133.16;;;14.61;53.63
21359;BME280;13506;50.852;20.632;2023-05-03T11:42:55;99131.44;;;14.37;53.35
21359;BME280;13506;50.852;20.632;2023-05-03T11:45:28;99133.81;;;14.40;53.79
21359;BME280;13506;50.852;20.632;2023-05-03T11:47:58;99137.44;;;14.39;54.91
21359;BME280;13506;50.852;20.632;2023-05-03T11:50:42;99129.78;;;14.48;54.63
21359;BME280;13506;50.852;20.632;2023-05-03T11:53:11;99136.03;;;14.69;54.12
21359;BME280;13506;50.852;20.632;2023-05-03T11:55:40;99121.31;;;14.67;53.78
21359;BME280;13506;50.852;20.632;2023-05-03T11:58:12;99127.06;;;14.60;53.60
21359;BME280;13506;50.852;20.632;2023-05-03T12:00:45;99124.06;;;14.54;53.51
21359;BME280;13506;50.852;20.632;2023-05-03T12:03:16;99128.50;;;14.53;52.82
21359;BME280;13506;50.852;20.632;2023-05-03T12:05:46;99131.72;;;14.57;52.77
21359;BME280;13506;50.852;20.632;2023-05-03T12:08:15;99123.53;;;14.37;53.46
21359;BME280;13506;50.852;20.632;2023-05-03T12:10:45;99119.16;;;14.49;52.89
21359;BME280;13506;50.852;20.632;2023-05-03T12:13:13;99118.78;;;14.54;52.24
21359;BME280;13506;50.852;20.632;2023-05-03T12:15:43;99119.72;;;14.53;52.24
21359;BME280;13506;50.852;20.632;2023-05-03T12:18:11;99119.38;;;14.57;51.83
21359;BME280;13506;50.852;20.632;2023-05-03T12:20:39;99126.69;;;14.54;51.73
21359;BME280;13506;50.852;20.632;2023-05-03T12:23:08;99113.63;;;14.41;53.19
21359;BME280;13506;50.852;20.632;2023-05-03T12:25:37;99121.78;;;14.60;53.00
21359;BME280;13506;50.852;20.632;2023-05-03T12:28:05;99117.13;;;14.75;52.93
21359;BME280;13506;50.852;20.632;2023-05-03T12:30:34;99110.78;;;14.89;51.28
21359;BME280;13506;50.852;20.632;2023-05-03T12:33:03;99109.84;;;14.79;49.65
21359;BME280;13506;50.852;20.632;2023-05-03T12:35:31;99107.78;;;15.05;49.78
21359;BME280;13506;50.852;20.632;2023-05-03T12:37:59;99110.16;;;15.08;49.13
21359;BME280;13506;50.852;20.632;2023-05-03T12:40:28;99101.91;;;15.01;48.55
21359;BME280;13506;50.852;20.632;2023-05-03T12:42:57;99105.41;;;15.02;48.56
21359;BME280;13506;50.852;20.632;2023-05-03T12:45:27;99103.47;;;15.04;48.33
21359;BME280;13506;50.852;20.632;2023-05-03T12:47:56;99102.06;;;15.00;48.72
21359;BME280;13506;50.852;20.632;2023-05-03T12:50:26;99098.00;;;14.96;48.40
21359;BME280;13506;50.852;20.632;2023-05-03T12:52:53;99102.28;;;14.97;48.32
21359;BME280;13506;50.852;20.632;2023-05-03T12:55:22;99101.81;;;15.03;48.22
21359;BME280;13506;50.852;20.632;2023-05-03T12:57:49;99093.44;;;14.98;47.44
21359;BME280;13506;50.852;20.632;2023-05-03T13:00:19;99086.22;;;15.11;47.80
21359;BME280;13506;50.852;20.632;2023-05-03T13:02:47;99082.63;;;15.01;47.54
21359;BME280;13506;50.852;20.632;2023-05-03T13:05:17;99091.75;;;14.97;47.80
21359;BME280;13506;50.852;20.632;2023-05-03T13:07:46;99092.00;;;14.71;48.15
21359;BME280;13506;50.852;20.632;2023-05-03T13:10:14;99090.19;;;14.72;48.29